Time;durP1;ratioP1;P1;durP2;ratioP2;P2;SDS_P1;SDS_P2;PMS_P1;PMS_P2;Temp;Humidity;BMP_temperature;BMP_pressure;BME280_temperature;BME280_humidity;BME280_pressure;Samples;Min_cycle;Max_cycle;Signal;HPM_P1;HPM_P2
2021/09/05 00:00:34;;;;;;;7.10;4.28;;;15.80;99.90;;;;;;5052132;28;20028;-89
2021/09/05 00:02:59;;;;;;;10.07;4.57;;;16.10;99.90;;;;;;5052112;28;20025;-89
2021/09/05 00:05:25;;;;;;;7.10;4.78;;;16.20;99.90;;;;;;5052189;28;20385;-89
2021/09/05 00:07:51;;;;;;;7.80;3.97;;;16.20;99.90;;;;;;5052316;28;20108;-89
2021/09/05 00:10:16;;;;;;;5.53;4.15;;;16.40;99.90;;;;;;5052126;28;20029;-89
2021/09/05 00:12:42;;;;;;;6.22;4.03;;;16.40;99.90;;;;;;5052268;28;20025;-90
2021/09/05 00:15:10;;;;;;;7.00;4.38;;;16.60;99.90;;;;;;5052049;28;20400;-89
2021/09/05 00:17:39;;;;;;;7.93;4.63;;;16.30;99.90;;;;;;5051999;28;20048;-89
2021/09/05 00:20:06;;;;;;;5.72;3.85;;;16.10;99.90;;;;;;5051881;28;20033;-89
2021/09/05 00:22:32;;;;;;;5.25;3.78;;;15.80;99.90;;;;;;5053225;28;20084;-89
2021/09/05 00:24:58;;;;;;;7.03;4.28;;;15.70;99.90;;;;;;5053183;28;20090;-89
2021/09/05 00:27:24;;;;;;;6.38;4.38;;;16.10;99.90;;;;;;5033661;28;20498;-89
2021/09/05 00:29:49;;;;;;;8.52;4.53;;;16.20;99.90;;;;;;5033073;28;20018;-90
2021/09/05 00:32:15;;;;;;;9.00;4.63;;;16.30;99.90;;;;;;5015365;28;20048;-89
2021/09/05 00:34:41;;;;;;;7.30;3.90;;;16.20;99.90;;;;;;5015423;28;20117;-90
2021/09/05 00:37:07;;;;;;;5.93;4.20;;;16.30;99.90;;;;;;5015365;28;20032;-89
2021/09/05 00:39:33;;;;;;;6.13;4.45;;;16.20;99.90;;;;;;5015609;28;20048;-89
2021/09/05 00:41:59;;;;;;;6.47;4.38;;;16.20;99.90;;;;;;5034296;28;20473;-90
2021/09/05 00:44:25;;;;;;;6.88;4.22;;;16.30;99.90;;;;;;5019581;28;20485;-89
2021/09/05 00:46:51;;;;;;;9.02;4.45;;;16.10;99.90;;;;;;5019288;28;20025;-89
2021/09/05 00:49:17;;;;;;;9.52;4.30;;;16.10;99.90;;;;;;5037289;28;20025;-90
2021/09/05 00:51:43;;;;;;;9.88;4.30;;;15.90;99.90;;;;;;5019229;28;20481;-89
2021/09/05 00:54:11;;;;;;;5.88;4.20;;;16.10;99.90;;;;;;5019190;28;20034;-89
2021/09/05 00:56:39;;;;;;;7.88;4.68;;;15.80;99.90;;;;;;5019201;28;20504;-89
2021/09/05 00:59:07;;;;;;;7.07;4.10;;;15.80;99.90;;;;;;5019188;28;20478;-89
2021/09/05 01:01:33;;;;;;;5.78;4.18;;;15.40;99.90;;;;;;5019530;28;20482;-89
2021/09/05 01:03:59;;;;;;;5.50;4.28;;;15.50;99.90;;;;;;5018876;28;20025;-90
2021/09/05 01:06:25;;;;;;;6.35;4.32;;;15.70;99.90;;;;;;5036857;28;20029;-89
2021/09/05 01:08:53;;;;;;;5.28;4.35;;;15.90;99.90;;;;;;5018859;28;20444;-88
2021/09/05 01:11:19;;;;;;;9.07;4.50;;;15.90;99.90;;;;;;5018998;28;20486;-89
2021/09/05 01:13:45;;;;;;;5.03;4.05;;;15.90;99.90;;;;;;5018715;28;20116;-88
2021/09/05 01:16:29;;;;;;;7.13;3.90;;;15.90;99.90;;;;;;5018847;28;20105;-89
2021/09/05 01:19:01;;;;;;;;;;;15.80;99.90;;;;;;5019173;28;20029;-89
2021/09/05 01:21:27;;;;;;;8.07;4.60;;;16.10;99.90;;;;;;5019315;28;19995;-89
2021/09/05 01:23:52;;;;;;;8.70;4.60;;;15.90;99.90;;;;;;5020418;28;20107;-89
2021/09/05 01:26:19;;;;;;;6.53;4.40;;;15.80;99.90;;;;;;5037392;28;20055;-89
2021/09/05 01:28:45;;;;;;;10.65;4.88;;;15.90;99.90;;;;;;5061913;28;20021;-89
2021/09/05 01:31:11;;;;;;;7.32;4.13;;;16.20;99.90;;;;;;5061171;28;20017;-90
2021/09/05 01:33:37;;;;;;;5.40;4.38;;;16.00;99.90;;;;;;5055347;28;20025;-89
2021/09/05 01:36:03;;;;;;;7.75;4.28;;;16.00;99.90;;;;;;5054861;28;20024;-89
2021/09/05 01:38:31;;;;;;;9.73;4.22;;;15.90;99.90;;;;;;5055662;28;20029;-89
2021/09/05 01:40:56;;;;;;;7.22;4.25;;;16.00;99.90;;;;;;5055189;28;20025;-89
2021/09/05 01:43:24;;;;;;;5.38;4.32;;;16.00;99.90;;;;;;5054548;28;20029;-89
2021/09/05 01:45:50;;;;;;;6.20;4.57;;;15.70;99.90;;;;;;5054767;28;20021;-88
2021/09/05 01:48:15;;;;;;;7.75;4.38;;;15.80;99.90;;;;;;5054609;28;20078;-89
2021/09/05 01:50:41;;;;;;;8.63;4.25;;;15.90;99.90;;;;;;5054549;28;20481;-89
2021/09/05 01:53:07;;;;;;;5.28;3.90;;;15.90;99.90;;;;;;5055192;28;20381;-89
2021/09/05 01:55:32;;;;;;;9.95;4.65;;;15.90;99.90;;;;;;5055417;28;20078;-89
2021/09/05 01:57:58;;;;;;;6.28;4.45;;;15.70;99.90;;;;;;5054572;28;20036;-89
2021/09/05 02:00:24;;;;;;;5.75;4.32;;;15.60;99.90;;;;;;5054424;28;20024;-89
2021/09/05 02:02:51;;;;;;;6.80;4.30;;;15.70;99.90;;;;;;5054265;28;20024;-89
2021/09/05 02:05:17;;;;;;;8.52;4.38;;;15.80;99.90;;;;;;5054270;28;20083;-89
2021/09/05 02:07:42;;;;;;;6.07;4.20;;;15.40;99.90;;;;;;5055587;28;20408;-88
2021/09/05 02:10:09;;;;;;;6.43;4.05;;;15.20;99.90;;;;;;5054125;28;20028;-89
2021/09/05 02:12:34;;;;;;;5.88;4.03;;;15.60;99.90;;;;;;5054060;28;20029;-89
2021/09/05 02:15:00;;;;;;;9.05;4.35;;;15.80;99.90;;;;;;5054160;28;20051;-89
2021/09/05 02:17:26;;;;;;;6.57;4.22;;;15.60;99.90;;;;;;5054071;28;20025;-89
2021/09/05 02:19:52;;;;;;;7.20;4.90;;;15.50;99.90;;;;;;5055072;28;20021;-89
2021/09/05 02:22:17;;;;;;;6.15;4.75;;;15.10;99.90;;;;;;5055493;28;20024;-90
2021/09/05 02:24:43;;;;;;;6.25;3.90;;;14.90;99.90;;;;;;5053882;28;20025;-89
2021/09/05 02:27:09;;;;;;;10.05;4.10;;;15.40;99.90;;;;;;5053724;28;20049;-89
2021/09/05 02:29:36;;;;;;;6.03;4.28;;;15.50;99.90;;;;;;5054039;28;20060;-89
2021/09/05 02:32:02;;;;;;;4.90;4.22;;;15.50;99.90;;;;;;5053750;28;20424;-89
2021/09/05 02:34:27;;;;;;;10.75;4.63;;;15.60;99.90;;;;;;5053691;28;20082;-88
2021/09/05 02:36:53;;;;;;;7.90;4.43;;;15.70;99.90;;;;;;5053590;28;20139;-89
2021/09/05 02:39:19;;;;;;;8.75;4.30;;;15.80;99.90;;;;;;5053677;28;20028;-89
2021/09/05 02:41:45;;;;;;;6.18;4.35;;;15.70;99.90;;;;;;5054319;28;20051;-89
2021/09/05 02:44:10;;;;;;;6.15;4.70;;;15.50;99.90;;;;;;5053476;28;20396;-89
2021/09/05 02:46:36;;;;;;;6.65;4.75;;;15.50;99.90;;;;;;5053337;28;20071;-89
2021/09/05 02:49:02;;;;;;;7.25;4.43;;;15.40;99.90;;;;;;5053501;28;20408;-89
2021/09/05 02:51:27;;;;;;;7.53;4.25;;;15.50;99.90;;;;;;5053777;28;20123;-90
2021/09/05 02:53:53;;;;;;;6.03;4.25;;;15.50;99.90;;;;;;5053151;28;20028;-89
2021/09/05 02:56:19;;;;;;;6.57;4.55;;;15.50;99.90;;;;;;5053370;28;20120;-91
2021/09/05 02:58:44;;;;;;;5.32;4.13;;;15.70;99.90;;;;;;5054437;28;20074;-89
2021/09/05 03:01:10;;;;;;;7.90;4.63;;;15.70;99.90;;;;;;5053452;28;20025;-90
2021/09/05 03:03:36;;;;;;;10.82;4.60;;;15.80;99.90;;;;;;5053494;28;20477;-89
2021/09/05 03:06:01;;;;;;;8.48;4.57;;;15.80;99.90;;;;;;5053142;28;20167;-89
2021/09/05 03:08:27;;;;;;;10.00;4.40;;;16.00;99.90;;;;;;5054352;28;20409;-89
2021/09/05 03:10:53;;;;;;;8.25;4.13;;;15.80;99.90;;;;;;5053035;28;20385;-89
2021/09/05 03:13:18;;;;;;;6.43;4.57;;;15.90;99.90;;;;;;5052983;28;20049;-88
2021/09/05 03:15:44;;;;;;;9.18;4.82;;;15.90;99.90;;;;;;5053090;28;20163;-88
2021/09/05 03:18:10;;;;;;;8.00;4.47;;;15.70;99.90;;;;;;5052928;28;20120;-90
2021/09/05 03:20:35;;;;;;;8.13;4.47;;;15.60;99.90;;;;;;5052791;28;20481;-89
2021/09/05 03:23:01;;;;;;;8.98;4.32;;;15.50;99.90;;;;;;5052850;28;20028;-89
2021/09/05 03:25:27;;;;;;;8.18;4.30;;;15.30;99.90;;;;;;5050457;28;20382;-89
2021/09/05 03:27:52;;;;;;;6.05;4.18;;;15.40;99.90;;;;;;5016252;28;20112;-89
2021/09/05 03:30:18;;;;;;;5.07;4.20;;;15.40;99.90;;;;;;5016337;28;20484;-89
2021/09/05 03:32:44;;;;;;;6.28;4.90;;;15.40;99.90;;;;;;5016382;28;20032;-89
2021/09/05 03:35:10;;;;;;;5.63;4.07;;;15.30;99.90;;;;;;5016520;28;20032;-89
2021/09/05 03:37:36;;;;;;;5.97;4.55;;;15.20;99.90;;;;;;5016848;28;20029;-89
2021/09/05 03:40:03;;;;;;;8.60;4.40;;;15.10;99.90;;;;;;5017561;28;20037;-89
2021/09/05 03:42:28;;;;;;;5.93;4.45;;;15.40;99.90;;;;;;5019062;28;20083;-89
2021/09/05 03:44:54;;;;;;;7.45;4.43;;;15.40;99.90;;;;;;5025249;28;20021;-88
2021/09/05 03:47:20;;;;;;;6.20;4.30;;;15.50;99.90;;;;;;5021631;28;20053;-88
2021/09/05 03:49:45;;;;;;;9.93;4.85;;;15.40;99.90;;;;;;5017577;28;20024;-89
2021/09/05 03:52:11;;;;;;;6.00;4.43;;;15.30;99.90;;;;;;5034329;28;20075;-89
2021/09/05 03:54:37;;;;;;;5.90;4.40;;;15.40;99.90;;;;;;5016048;28;20112;-89
2021/09/05 03:57:03;;;;;;;6.00;4.35;;;15.30;99.90;;;;;;5016021;28;20028;-89
2021/09/05 03:59:29;;;;;;;11.20;4.60;;;15.30;99.90;;;;;;5016055;28;20036;-89
2021/09/05 04:01:54;;;;;;;7.78;4.60;;;15.00;99.90;;;;;;5016413;28;20029;-89
2021/09/05 04:04:20;;;;;;;8.65;4.65;;;14.90;99.90;;;;;;5015943;28;20025;-89
2021/09/05 04:06:50;;;;;;;8.55;4.60;;;15.10;99.90;;;;;;5033469;28;20428;-89
2021/09/05 04:12:00;;;;;;;5.88;4.63;;;15.40;99.90;;;;;;5034158;28;20500;-89
2021/09/05 04:14:26;;;;;;;7.53;4.07;;;15.40;99.90;;;;;;5015973;28;20029;-89
2021/09/05 04:16:51;;;;;;;7.53;4.50;;;15.40;99.90;;;;;;5034354;28;20021;-89
2021/09/05 04:19:17;;;;;;;8.00;4.70;;;15.10;99.90;;;;;;5019858;28;20029;-89
2021/09/05 04:21:43;;;;;;;5.72;4.30;;;15.00;99.90;;;;;;5020004;28;20512;-89
2021/09/05 04:24:08;;;;;;;8.32;4.32;;;15.00;99.90;;;;;;5019878;28;20509;-88
2021/09/05 04:26:34;;;;;;;6.28;4.22;;;15.10;99.90;;;;;;5041041;28;20048;-90
2021/09/05 04:28:59;;;;;;;9.35;4.63;;;15.40;99.90;;;;;;5057488;28;20029;-89
2021/09/05 04:31:25;;;;;;;7.95;4.45;;;15.40;99.90;;;;;;5056061;28;20021;-89
2021/09/05 04:33:51;;;;;;;9.80;4.93;;;15.40;99.90;;;;;;5055963;28;20052;-88
2021/09/05 04:36:16;;;;;;;6.50;4.10;;;15.40;99.90;;;;;;5057090;28;20083;-89
2021/09/05 04:38:42;;;;;;;6.15;4.15;;;15.50;99.90;;;;;;5055755;28;20067;-89
2021/09/05 04:41:08;;;;;;;7.47;4.18;;;15.40;99.90;;;;;;5055657;28;20033;-89
2021/09/05 04:43:34;;;;;;;6.80;4.57;;;15.60;99.90;;;;;;5056930;28;20025;-89
2021/09/05 04:46:00;;;;;;;8.63;4.57;;;15.50;99.90;;;;;;5055506;28;20055;-90
2021/09/05 04:48:25;;;;;;;7.60;4.68;;;15.30;99.90;;;;;;5055664;28;20102;-89
2021/09/05 04:50:51;;;;;;;8.15;4.35;;;15.20;99.90;;;;;;5055693;28;20032;-90
2021/09/05 04:53:17;;;;;;;6.15;4.10;;;15.20;99.90;;;;;;5056928;28;20389;-88
2021/09/05 04:55:43;;;;;;;7.68;4.22;;;15.30;99.90;;;;;;5056919;28;20021;-89
2021/09/05 04:58:09;;;;;;;6.05;4.35;;;15.30;99.90;;;;;;5055601;28;20032;-89
2021/09/05 05:00:34;;;;;;;7.05;4.85;;;15.40;99.90;;;;;;5055555;28;20029;-89
2021/09/05 05:03:00;;;;;;;6.20;4.38;;;15.10;99.90;;;;;;5055463;28;20534;-89
2021/09/05 05:05:25;;;;;;;5.22;4.00;;;15.10;99.90;;;;;;5055377;28;20033;-89
2021/09/05 05:07:54;;;;;;;5.13;4.07;;;15.20;99.90;;;;;;5056773;28;20021;-89
2021/09/05 05:10:21;;;;;;;6.97;4.07;;;15.30;99.90;;;;;;5055560;28;20403;-89
2021/09/05 05:12:46;;;;;;;5.15;3.97;;;15.10;99.90;;;;;;5055490;28;20021;-89
2021/09/05 05:15:12;;;;;;;7.30;4.40;;;15.10;99.90;;;;;;5055218;28;20025;-90
2021/09/05 05:17:38;;;;;;;5.85;4.55;;;14.90;99.90;;;;;;5056633;28;20533;-89
2021/09/05 05:20:04;;;;;;;7.53;4.32;;;14.90;99.90;;;;;;5056713;28;20491;-89
2021/09/05 05:22:30;;;;;;;6.82;4.53;;;14.90;99.90;;;;;;5054950;28;20028;-89
2021/09/05 05:24:56;;;;;;;4.97;3.85;;;14.90;99.90;;;;;;5055029;28;20029;-89
2021/09/05 05:27:21;;;;;;;5.40;3.80;;;15.20;99.90;;;;;;5055313;28;20377;-90
2021/09/05 05:29:47;;;;;;;6.70;4.47;;;15.30;99.90;;;;;;5055178;28;20020;-90
2021/09/05 05:32:13;;;;;;;5.57;4.03;;;15.20;99.90;;;;;;5055816;28;20021;-89
2021/09/05 05:34:40;;;;;;;7.22;4.47;;;15.10;99.90;;;;;;5056441;28;20033;-89
2021/09/05 05:37:06;;;;;;;6.75;4.50;;;15.20;99.90;;;;;;5055110;28;20527;-89
2021/09/05 05:39:32;;;;;;;6.35;4.22;;;15.30;99.90;;;;;;5054930;28;20029;-90
2021/09/05 05:41:57;;;;;;;5.30;4.07;;;15.40;99.90;;;;;;5056201;28;20108;-89
2021/09/05 05:44:23;;;;;;;8.65;4.20;;;15.40;99.90;;;;;;5055835;28;20032;-89
2021/09/05 05:46:49;;;;;;;5.70;4.50;;;15.60;99.90;;;;;;5054767;28;20051;-89
2021/09/05 05:49:14;;;;;;;7.82;4.82;;;15.60;99.90;;;;;;5054585;28;20025;-88
2021/09/05 05:51:40;;;;;;;6.30;4.53;;;15.60;99.90;;;;;;5054927;28;20028;-90
2021/09/05 05:54:06;;;;;;;5.47;3.92;;;15.60;99.90;;;;;;5055957;28;20469;-89
2021/09/05 05:56:31;;;;;;;6.60;4.53;;;15.50;99.90;;;;;;5056271;28;20032;-89
2021/09/05 05:59:00;;;;;;;8.50;4.70;;;15.40;99.90;;;;;;5064644;28;20025;-88
2021/09/05 06:01:25;;;;;;;6.95;4.20;;;15.30;99.90;;;;;;5068294;28;20366;-88
2021/09/05 06:03:51;;;;;;;8.75;4.30;;;15.20;99.90;;;;;;5059069;28;20032;-89
2021/09/05 06:06:16;;;;;;;5.93;4.10;;;15.40;99.90;;;;;;5055794;28;20053;-89
2021/09/05 06:08:42;;;;;;;9.07;4.88;;;15.50;99.90;;;;;;5054857;28;20107;-89
2021/09/05 06:11:08;;;;;;;5.90;4.60;;;15.40;99.90;;;;;;5054474;28;20538;-88
2021/09/05 06:13:34;;;;;;;10.02;4.50;;;15.60;99.90;;;;;;5054189;28;20017;-89
2021/09/05 06:15:59;;;;;;;7.30;4.32;;;15.60;99.90;;;;;;5055557;28;20025;-90
2021/09/05 06:18:25;;;;;;;6.32;4.43;;;15.60;99.90;;;;;;5054173;28;20500;-88
2021/09/05 06:20:51;;;;;;;5.65;4.25;;;15.70;99.90;;;;;;5053877;28;20017;-89
2021/09/05 06:23:17;;;;;;;6.78;4.50;;;15.90;99.90;;;;;;5055219;28;20025;-89
2021/09/05 06:25:42;;;;;;;6.57;3.95;;;16.00;99.90;;;;;;5053399;28;20045;-88
2021/09/05 06:28:08;;;;;;;7.07;4.55;;;16.10;99.90;;;;;;5053702;28;20392;-89
2021/09/05 06:30:34;;;;;;;5.95;3.92;;;16.30;99.90;;;;;;5054209;28;20017;-89
2021/09/05 06:32:59;;;;;;;7.80;4.55;;;16.40;99.90;;;;;;5054747;28;20125;-89
2021/09/05 06:35:26;;;;;;;9.00;4.45;;;16.60;99.90;;;;;;5054462;28;20024;-88
2021/09/05 06:37:51;;;;;;;5.93;4.25;;;16.40;99.90;;;;;;5055267;28;20028;-89
2021/09/05 06:40:17;;;;;;;7.57;4.68;;;16.40;99.90;;;;;;5053548;28;20480;-89
2021/09/05 06:42:43;;;;;;;6.97;4.45;;;16.50;99.90;;;;;;5053741;28;20021;-89
2021/09/05 06:45:09;;;;;;;6.32;4.28;;;16.50;99.90;;;;;;5053567;28;20489;-89
2021/09/05 06:47:35;;;;;;;8.35;4.47;;;16.50;99.90;;;;;;5054349;28;20463;-89
2021/09/05 06:50:00;;;;;;;6.93;4.53;;;16.30;99.90;;;;;;5054619;28;20021;-89
2021/09/05 06:52:26;;;;;;;5.13;3.83;;;16.30;99.90;;;;;;5053450;28;20021;-89
2021/09/05 06:54:52;;;;;;;6.28;4.20;;;16.30;99.90;;;;;;5053382;28;20047;-88
2021/09/05 06:57:17;;;;;;;7.50;4.05;;;16.40;99.90;;;;;;5053324;28;20028;-88
2021/09/05 06:59:43;;;;;;;7.85;4.25;;;16.50;99.90;;;;;;5053046;28;20025;-88
2021/09/05 07:02:09;;;;;;;7.18;4.45;;;16.50;99.90;;;;;;5053553;28;20389;-89
2021/09/05 07:04:36;;;;;;;7.13;4.30;;;16.60;99.90;;;;;;5053072;28;20548;-88
2021/09/05 07:07:02;;;;;;;10.05;4.25;;;16.70;99.90;;;;;;5053358;28;20025;-87
2021/09/05 07:09:28;;;;;;;7.40;4.60;;;16.70;99.90;;;;;;5053141;28;20065;-88
2021/09/05 07:11:54;;;;;;;5.13;4.28;;;16.80;99.90;;;;;;5053562;28;20462;-88
2021/09/05 07:14:19;;;;;;;12.05;4.55;;;16.80;99.90;;;;;;5053023;28;20059;-88
2021/09/05 07:16:45;;;;;;;8.02;4.80;;;16.90;99.90;;;;;;5054384;28;20120;-88
2021/09/05 07:19:10;;;;;;;7.80;4.78;;;17.10;99.90;;;;;;5053230;28;20029;-88
2021/09/05 07:21:36;;;;;;;7.00;4.82;;;17.20;99.90;;;;;;5053010;28;20028;-88
2021/09/05 07:24:02;;;;;;;12.43;4.30;;;17.30;99.90;;;;;;5054450;28;20465;-87
2021/09/05 07:26:28;;;;;;;6.60;4.10;;;17.40;99.90;;;;;;5052751;28;20469;-88
2021/09/05 07:28:53;;;;;;;11.32;4.80;;;17.60;99.90;;;;;;5052996;28;20080;-89
2021/09/05 07:31:19;;;;;;;11.27;4.70;;;17.90;99.90;;;;;;5052689;28;20393;-88
2021/09/05 07:33:45;;;;;;;7.97;4.65;;;18.00;99.90;;;;;;5053824;28;20028;-88
2021/09/05 07:36:10;;;;;;;6.82;4.05;;;18.00;99.90;;;;;;5054306;28;20504;-87
2021/09/05 07:38:36;;;;;;;5.75;4.13;;;18.10;99.90;;;;;;5054085;28;20393;-88
2021/09/05 07:41:02;;;;;;;9.38;4.97;;;18.30;99.90;;;;;;5054029;28;20028;-88
2021/09/05 07:43:27;;;;;;;7.43;4.40;;;18.30;99.90;;;;;;5052723;28;20092;-88
2021/09/05 07:45:53;;;;;;;6.20;4.40;;;18.30;99.90;;;;;;5053913;28;20025;-88
2021/09/05 07:48:19;;;;;;;5.30;3.80;;;18.60;99.90;;;;;;5052739;28;20036;-88
2021/09/05 07:50:44;;;;;;;6.55;4.30;;;18.80;99.90;;;;;;5052516;28;20017;-87
2021/09/05 07:53:10;;;;;;;5.47;4.50;;;19.20;99.90;;;;;;5052313;28;20564;-87
2021/09/05 07:55:36;;;;;;;8.20;4.22;;;19.40;99.90;;;;;;5052836;28;20029;-88
2021/09/05 07:58:01;;;;;;;7.60;4.32;;;19.60;99.90;;;;;;5052967;28;20393;-88
2021/09/05 08:00:27;;;;;;;8.50;4.75;;;19.90;99.90;;;;;;5052757;28;20059;-88
2021/09/05 08:02:53;;;;;;;11.05;4.68;;;20.20;99.90;;;;;;5054515;28;20025;-87
2021/09/05 08:05:18;;;;;;;5.22;3.75;;;20.20;99.90;;;;;;5053514;28;20040;-88
2021/09/05 08:07:44;;;;;;;7.78;4.95;;;20.30;99.90;;;;;;5052765;28;20025;-88
2021/09/05 08:10:10;;;;;;;6.97;4.20;;;20.70;99.90;;;;;;5054311;28;20013;-88
2021/09/05 08:12:36;;;;;;;6.53;4.80;;;20.70;99.90;;;;;;5054507;28;20393;-88
2021/09/05 08:15:02;;;;;;;9.85;5.03;;;20.50;99.90;;;;;;5057943;28;20024;-87
2021/09/05 08:17:27;;;;;;;6.72;4.78;;;20.60;99.90;;;;;;5056546;28;20025;-88
2021/09/05 08:19:53;;;;;;;8.07;4.72;;;20.50;99.90;;;;;;5052749;28;20025;-88
2021/09/05 08:22:19;;;;;;;9.15;4.30;;;20.30;99.90;;;;;;5052666;28;20029;-88
2021/09/05 08:24:45;;;;;;;10.57;4.82;;;20.40;99.90;;;;;;5053359;28;20031;-88
2021/09/05 08:27:11;;;;;;;7.00;4.43;;;20.50;99.90;;;;;;5051857;28;20057;-88
2021/09/05 08:29:37;;;;;;;11.05;4.45;;;20.60;99.90;;;;;;5052575;28;20024;-87
2021/09/05 08:32:04;;;;;;;6.47;4.50;;;20.70;99.90;;;;;;5052455;28;20492;-88
2021/09/05 08:34:33;;;;;;;7.68;4.65;;;21.00;99.90;;;;;;5052521;28;20021;-88
2021/09/05 08:37:00;;;;;;;6.25;4.50;;;21.30;99.90;;;;;;5052342;28;20033;-88
2021/09/05 08:39:27;;;;;;;6.25;3.85;;;21.40;99.90;;;;;;5052386;28;20076;-88
2021/09/05 08:41:55;;;;;;;5.22;3.75;;;21.50;99.90;;;;;;5051850;28;20098;-88
2021/09/05 08:44:21;;;;;;;5.53;4.07;;;21.60;99.90;;;;;;5053536;28;20025;-88
2021/09/05 08:46:47;;;;;;;5.78;4.40;;;21.80;99.90;;;;;;5052063;28;20025;-87
2021/09/05 08:49:17;;;;;;;8.10;4.20;;;21.70;99.90;;;;;;5052093;28;20025;-88
2021/09/05 08:51:43;;;;;;;6.63;4.10;;;21.80;99.90;;;;;;5051923;28;20025;-88
2021/09/05 08:54:09;;;;;;;4.40;3.60;;;21.80;99.90;;;;;;5051713;28;20116;-88
2021/09/05 08:56:35;;;;;;;5.28;3.90;;;22.00;99.90;;;;;;5051575;28;20489;-88
2021/09/05 08:59:01;;;;;;;7.25;4.43;;;22.40;99.90;;;;;;5051483;28;20021;-88
2021/09/05 09:01:28;;;;;;;7.68;4.07;;;22.60;99.90;;;;;;5051475;28;20115;-88
2021/09/05 09:04:10;;;;;;;4.95;4.03;;;22.60;99.90;;;;;;5055609;28;20028;-89
2021/09/05 09:06:40;;;;;;;5.72;3.88;;;22.70;99.90;;;;;;5055392;28;20043;-89
2021/09/05 09:09:10;;;;;;;7.60;4.20;;;22.70;99.90;;;;;;5055565;28;20112;-88
2021/09/05 09:12:28;;;;;;;6.07;4.40;;;22.90;99.90;;;;;;5058861;28;20124;-88
2021/09/05 09:14:54;;;;;;;5.97;3.97;;;22.90;99.90;;;;;;5025775;28;20378;-89
2021/09/05 09:17:20;;;;;;;5.13;3.70;;;23.00;99.90;;;;;;5055626;28;20037;-89
2021/09/05 09:19:47;;;;;;;5.78;3.60;;;23.10;99.90;;;;;;5056517;28;20025;-89
2021/09/05 09:22:19;;;;;;;5.13;4.18;;;23.40;99.90;;;;;;5056230;28;20043;-89
2021/09/05 09:24:45;;;;;;;5.00;4.05;;;23.70;99.90;;;;;;5054828;28;20029;-89
2021/09/05 09:27:11;;;;;;;6.07;4.07;;;23.80;99.90;;;;;;5054734;28;20041;-89
2021/09/05 09:29:38;;;;;;;4.85;3.85;;;24.20;99.90;;;;;;5054713;28;20496;-89
2021/09/05 09:32:19;;;;;;;8.25;3.65;;;24.70;99.90;;;;;;5055718;28;20021;-89
2021/09/05 09:34:47;;;;;;;6.35;4.28;;;24.90;99.90;;;;;;5056080;28;20060;-87
2021/09/05 09:37:18;;;;;;;6.07;3.65;;;25.00;99.90;;;;;;5056311;28;20484;-87
2021/09/05 09:39:52;;;;;;;8.40;4.22;;;24.90;99.90;;;;;;5055636;28;20021;-87
2021/09/05 09:42:36;;;;;;;5.35;3.72;;;24.90;99.90;;;;;;5055575;28;20545;-87
2021/09/05 09:45:19;;;;;;;4.65;3.63;;;24.60;99.90;;;;;;5055730;28;20029;-87
2021/09/05 09:47:47;;;;;;;4.68;3.50;;;24.40;99.90;;;;;;5055339;28;20017;-87
2021/09/05 09:50:15;;;;;;;4.75;3.72;;;24.80;99.90;;;;;;5054731;28;20072;-87
2021/09/05 09:52:43;;;;;;;5.57;4.25;;;24.80;99.90;;;;;;5055237;28;20028;-88
2021/09/05 09:55:10;;;;;;;7.70;3.97;;;24.90;99.90;;;;;;5055071;28;20519;-88
2021/09/05 09:57:36;;;;;;;5.05;3.80;;;25.30;99.90;;;;;;5055611;28;20528;-88
2021/09/05 10:00:09;;;;;;;7.38;4.22;;;25.40;99.90;;;;;;5057102;28;20021;-87
2021/09/05 10:02:38;;;;;;;6.32;3.80;;;25.40;99.90;;;;;;5056542;28;20416;-88
2021/09/05 10:05:05;;;;;;;4.72;3.58;;;25.30;99.90;;;;;;5056420;28;20504;-88
2021/09/05 10:07:32;;;;;;;7.72;3.53;;;25.50;99.90;;;;;;5056612;28;20036;-88
2021/09/05 10:10:04;;;;;;;8.10;3.83;;;25.60;99.90;;;;;;5055170;28;20071;-88
2021/09/05 10:12:32;;;;;;;4.15;3.20;;;25.80;99.90;;;;;;5056677;28;20028;-88
2021/09/05 10:14:59;;;;;;;5.43;3.55;;;25.90;99.90;;;;;;5055342;28;20025;-88
2021/09/05 10:17:28;;;;;;;8.73;3.80;;;25.90;99.90;;;;;;5055623;28;20078;-87
2021/09/05 10:19:54;;;;;;;4.55;3.70;;;26.10;99.90;;;;;;5056954;28;20032;-87
2021/09/05 10:22:23;;;;;;;4.65;3.28;;;26.20;99.80;;;;;;5056086;28;20025;-89
2021/09/05 10:24:51;;;;;;;6.07;3.30;;;26.30;99.50;;;;;;5060894;28;20041;-88
2021/09/05 10:27:31;;;;;;;3.90;3.13;;;26.10;99.40;;;;;;5074003;28;20048;-88
2021/09/05 10:30:10;;;;;;;4.30;3.30;;;26.50;99.90;;;;;;5067409;28;20028;-88
2021/09/05 10:32:48;;;;;;;5.53;3.75;;;26.70;98.60;;;;;;5056709;28;20074;-88
2021/09/05 10:35:26;;;;;;;4.28;3.47;;;26.80;98.20;;;;;;5055589;28;20029;-88
2021/09/05 10:38:21;;;;;;;5.32;3.47;;;26.60;97.90;;;;;;5054404;28;20028;-88
2021/09/05 10:40:48;;;;;;;;;;;26.70;97.70;;;;;;5055104;28;20443;-88
2021/09/05 10:43:14;;;;;;;7.30;3.38;;;26.80;97.60;;;;;;5054994;28;19912;-88
2021/09/05 10:45:43;;;;;;;7.70;3.80;;;27.10;97.50;;;;;;5055023;28;20074;-88
2021/09/05 10:48:32;;;;;;;4.10;3.40;;;27.50;97.20;;;;;;5055954;28;20021;-88
2021/09/05 10:51:11;;;;;;;5.43;3.90;;;27.80;96.30;;;;;;5055360;28;20476;-88
2021/09/05 10:53:48;;;;;;;4.78;3.67;;;27.60;95.70;;;;;;5055159;28;20025;-88
2021/09/05 10:56:20;;;;;;;5.65;3.28;;;27.90;96.20;;;;;;5054852;28;20035;-87
2021/09/05 10:59:06;;;;;;;6.30;3.15;;;28.50;95.60;;;;;;5054553;28;20021;-88
2021/09/05 11:01:47;;;;;;;6.35;3.00;;;28.80;94.00;;;;;;5055425;28;20472;-89
2021/09/05 11:04:14;;;;;;;4.35;3.20;;;28.40;93.70;;;;;;5055336;28;20414;-88
2021/09/05 11:07:01;;;;;;;5.68;3.67;;;28.60;94.10;;;;;;5054931;28;20090;-87
2021/09/05 11:09:27;;;;;;;5.03;3.50;;;28.80;93.20;;;;;;5055590;28;20431;-88
2021/09/05 11:12:14;;;;;;;4.35;3.13;;;29.00;93.00;;;;;;5054609;28;20108;-88
2021/09/05 11:14:40;;;;;;;6.25;3.45;;;29.30;92.50;;;;;;5054232;28;20025;-88
2021/09/05 11:17:09;;;;;;;6.30;3.35;;;29.30;92.00;;;;;;5055130;28;20090;-88
2021/09/05 11:19:46;;;;;;;6.63;2.95;;;29.70;91.40;;;;;;5054947;28;20021;-88
2021/09/05 11:22:17;;;;;;;5.07;3.15;;;29.90;91.90;;;;;;5054234;28;20124;-88
2021/09/05 11:24:43;;;;;;;6.10;2.88;;;29.70;91.60;;;;;;5054708;28;20036;-88
2021/09/05 11:27:14;;;;;;;7.53;3.53;;;30.20;91.50;;;;;;5039134;28;20044;-88
2021/09/05 11:29:41;;;;;;;4.75;3.50;;;29.80;90.30;;;;;;5019205;28;20397;-88
2021/09/05 11:32:09;;;;;;;5.13;3.05;;;29.50;90.90;;;;;;5018396;28;20049;-88
2021/09/05 11:34:36;;;;;;;7.43;4.00;;;29.30;91.10;;;;;;5018238;28;20025;-88
2021/09/05 11:37:03;;;;;;;6.43;3.22;;;29.40;90.20;;;;;;5035304;28;20474;-88
2021/09/05 11:39:29;;;;;;;4.10;3.03;;;29.60;89.00;;;;;;5018000;28;20036;-87
2021/09/05 11:41:58;;;;;;;10.07;3.20;;;29.60;88.80;;;;;;5035434;28;20043;-87
2021/09/05 11:44:36;;;;;;;3.72;3.33;;;29.80;87.70;;;;;;5018126;28;20056;-88
2021/09/05 11:47:09;;;;;;;5.72;3.15;;;30.20;87.50;;;;;;5018812;28;20078;-88
2021/09/05 11:49:45;;;;;;;3.33;2.80;;;30.40;86.00;;;;;;5035840;28;20028;-88
2021/09/05 11:52:10;;;;;;;5.55;3.10;;;30.60;86.70;;;;;;5035495;28;20021;-87
2021/09/05 11:54:36;;;;;;;7.20;3.22;;;30.80;85.50;;;;;;5036631;28;20478;-87
2021/09/05 11:57:02;;;;;;;5.35;3.35;;;30.90;85.10;;;;;;5036425;28;20033;-88
2021/09/05 11:59:28;;;;;;;4.35;2.97;;;31.10;84.30;;;;;;5036408;28;20033;-88
2021/09/05 12:01:54;;;;;;;4.35;3.15;;;31.50;83.90;;;;;;5018315;28;20031;-87
2021/09/05 12:04:20;;;;;;;5.60;3.10;;;30.70;82.90;;;;;;5034242;28;20437;-87
2021/09/05 12:06:47;;;;;;;4.22;3.10;;;30.60;83.90;;;;;;5016936;28;20026;-89
2021/09/05 12:09:29;;;;;;;3.70;3.22;;;31.40;81.00;;;;;;5016128;28;20021;-89
2021/09/05 12:12:01;;;;;;;4.32;2.88;;;31.50;81.40;;;;;;5017796;28;20116;-88
2021/09/05 12:14:37;;;;;;;3.83;2.90;;;30.80;80.20;;;;;;5016955;28;20026;-87
2021/09/05 12:17:19;;;;;;;3.30;2.83;;;30.10;82.10;;;;;;5034248;28;20071;-88
2021/09/05 12:20:04;;;;;;;3.60;3.10;;;28.90;83.60;;;;;;5015344;28;20060;-88
2021/09/05 12:22:48;;;;;;;6.45;3.58;;;28.10;85.00;;;;;;5015414;28;20021;-88
2021/09/05 12:25:19;;;;;;;5.90;3.08;;;28.60;85.40;;;;;;5033084;28;20501;-88
2021/09/05 12:27:55;;;;;;;5.57;3.08;;;30.00;83.70;;;;;;5015928;28;20039;-89
2021/09/05 12:30:30;;;;;;;3.97;3.17;;;30.90;80.80;;;;;;5033676;28;20028;-87
2021/09/05 12:33:27;;;;;;;4.78;2.95;;;30.30;83.10;;;;;;5015457;28;20025;-88
2021/09/05 12:36:08;;;;;;;5.65;3.20;;;30.50;81.60;;;;;;5006046;28;20038;-88
2021/09/05 12:38:35;;;;;;;4.30;2.90;;;31.10;79.10;;;;;;5035524;28;20385;-89
2021/09/05 12:41:06;;;;;;;5.55;3.05;;;;;;;;;;5019588;28;20052;-88
2021/09/05 12:43:51;;;;;;;4.80;3.05;;;32.40;76.60;;;;;;5020304;28;20026;-88
2021/09/05 12:46:19;;;;;;;3.28;2.65;;;33.10;76.00;;;;;;5021201;28;20083;-90
2021/09/05 12:48:48;;;;;;;3.67;3.13;;;32.90;74.20;;;;;;5020756;28;20087;-88
2021/09/05 12:51:18;;;;;;;3.17;2.88;;;32.90;75.10;;;;;;5020353;28;20022;-88
2021/09/05 12:54:03;;;;;;;3.50;2.80;;;32.70;73.60;;;;;;5020717;28;20075;-87